CheckWX is a tool to help pilots better visualize weather data.  It is not intended as a substitute for an official pre-flight weather briefing.

16:34:56 UTC

D39 METAR
Sauk Centre Municipal Airport
Sauk Centre, Minnesota, USA
Current

20 mins ago

KD39 261615Z AUTO 18010KT 10SM OVC055 03/M02 A3033 RMK AO2 T00331018
Observed
Mar-26 @ 16:15 UTC
Wind
  • 180° at 10 KTS
Visibility
10 SM
Flight Rules
VFR
Cloud Levels
  • Overcast at 5,500' AGL
Temperature
C / 37°F
Dewpoint
-2°C / 28°F
Humidity
70%
Altimeter
30.33" Hg
Pressure
1027.12 hPa
Previous

40 mins ago

KD39 261555Z AUTO 19011KT 5SM HZ SCT055 03/M02 A3034 RMK AO2 T00311020
Observed
Mar-26 @ 15:55 UTC
Wind
  • 190° at 11 KTS
Visibility
5 SM
Flight Rules
MVFR
Conditions
Haze
Cloud Levels
  • Scattered at 5,500' AGL
Temperature
C / 37°F
Dewpoint
-2°C / 28°F
Humidity
70%
Altimeter
30.34" Hg
Pressure
1027.42 hPa
Previous

59 mins ago

KD39 261536Z AUTO 19009KT 10SM CLR 03/M02 A3033 RMK AO2 T00281019
Observed
Mar-26 @ 15:36 UTC
Wind
  • 190° at 9 KTS
Visibility
10 SM
Flight Rules
VFR
Cloud Levels
  • Clear skies
Temperature
C / 37°F
Dewpoint
-2°C / 28°F
Humidity
70%
Altimeter
30.33" Hg
Pressure
1027.12 hPa